sensor_id;sensor_type;location;lat;lon;timestamp;noise_LAeq;noise_LA_min;noise_LA_max;noise_LA01;noise_LA95
37162;Laerm;68342;52.598;13.450;2024-01-11T00:02:06;37.30;30.53;55.95;;
37162;Laerm;68342;52.598;13.450;2024-01-11T00:04:31;37.86;30.34;60.60;;
37162;Laerm;68342;52.598;13.450;2024-01-11T00:06:56;37.44;29.88;57.53;;
37162;Laerm;68342;52.598;13.450;2024-01-11T00:09:22;37.39;30.18;59.55;;
37162;Laerm;68342;52.598;13.450;2024-01-11T00:11:48;37.18;30.02;54.83;;
37162;Laerm;68342;52.598;13.450;2024-01-11T00:14:14;37.78;29.67;59.94;;
37162;Laerm;68342;52.598;13.450;2024-01-11T00:16:39;38.13;29.64;58.55;;
37162;Laerm;68342;52.598;13.450;2024-01-11T00:19:04;38.51;30.55;63.80;;
37162;Laerm;68342;52.598;13.450;2024-01-11T00:21:29;37.87;30.38;57.59;;
37162;Laerm;68342;52.598;13.450;2024-01-11T00:23:55;37.23;29.58;58.23;;
37162;Laerm;68342;52.598;13.450;2024-01-11T00:26:20;38.14;29.92;58.71;;
37162;Laerm;68342;52.598;13.450;2024-01-11T00:28:45;37.61;30.25;58.56;;
37162;Laerm;68342;52.598;13.450;2024-01-11T00:31:10;38.28;30.51;56.53;;
37162;Laerm;68342;52.598;13.450;2024-01-11T00:33:36;38.96;32.24;55.51;;
37162;Laerm;68342;52.598;13.450;2024-01-11T00:36:01;37.88;30.40;58.96;;
37162;Laerm;68342;52.598;13.450;2024-01-11T00:38:26;37.37;30.32;58.27;;
37162;Laerm;68342;52.598;13.450;2024-01-11T00:40:52;38.03;30.86;62.04;;
37162;Laerm;68342;52.598;13.450;2024-01-11T00:43:17;37.53;30.34;59.10;;
37162;Laerm;68342;52.598;13.450;2024-01-11T00:45:43;37.88;30.77;56.56;;
37162;Laerm;68342;52.598;13.450;2024-01-11T00:48:08;38.01;30.41;59.19;;
37162;Laerm;68342;52.598;13.450;2024-01-11T00:50:34;37.80;30.32;59.24;;
37162;Laerm;68342;52.598;13.450;2024-01-11T00:52:59;37.00;30.08;55.91;;
37162;Laerm;68342;52.598;13.450;2024-01-11T00:55:26;38.08;30.35;57.65;;
37162;Laerm;68342;52.598;13.450;2024-01-11T00:57:51;38.94;32.58;62.86;;
37162;Laerm;68342;52.598;13.450;2024-01-11T01:00:16;38.31;32.07;63.59;;
37162;Laerm;68342;52.598;13.450;2024-01-11T01:02:42;37.62;30.14;57.77;;
37162;Laerm;68342;52.598;13.450;2024-01-11T01:05:07;37.90;30.46;54.86;;
37162;Laerm;68342;52.598;13.450;2024-01-11T01:07:33;37.84;31.13;58.23;;
37162;Laerm;68342;52.598;13.450;2024-01-11T01:09:58;38.19;30.51;61.33;;
37162;Laerm;68342;52.598;13.450;2024-01-11T01:12:23;37.66;30.36;58.26;;
37162;Laerm;68342;52.598;13.450;2024-01-11T01:14:50;37.33;30.29;57.14;;
37162;Laerm;68342;52.598;13.450;2024-01-11T01:17:15;37.29;30.26;55.26;;
37162;Laerm;68342;52.598;13.450;2024-01-11T01:19:41;37.10;30.20;56.92;;
37162;Laerm;68342;52.598;13.450;2024-01-11T01:22:06;38.33;30.38;60.68;;
37162;Laerm;68342;52.598;13.450;2024-01-11T01:24:31;38.32;30.27;57.74;;
37162;Laerm;68342;52.598;13.450;2024-01-11T01:26:57;38.44;30.48;58.34;;
37162;Laerm;68342;52.598;13.450;2024-01-11T01:29:22;38.81;32.55;57.10;;
37162;Laerm;68342;52.598;13.450;2024-01-11T01:31:47;39.11;31.82;59.63;;
37162;Laerm;68342;52.598;13.450;2024-01-11T01:34:12;37.43;30.90;55.65;;
37162;Laerm;68342;52.598;13.450;2024-01-11T01:36:40;37.58;30.48;55.49;;
37162;Laerm;68342;52.598;13.450;2024-01-11T01:39:05;37.67;30.16;56.48;;
37162;Laerm;68342;52.598;13.450;2024-01-11T01:41:30;37.98;30.49;56.58;;
37162;Laerm;68342;52.598;13.450;2024-01-11T01:43:55;37.67;30.19;58.59;;
37162;Laerm;68342;52.598;13.450;2024-01-11T01:46:24;37.55;30.05;57.42;;
37162;Laerm;68342;52.598;13.450;2024-01-11T01:48:53;37.15;30.13;55.85;;
37162;Laerm;68342;52.598;13.450;2024-01-11T01:51:18;38.55;30.89;57.41;;
37162;Laerm;68342;52.598;13.450;2024-01-11T01:53:44;37.96;30.99;56.63;;
37162;Laerm;68342;52.598;13.450;2024-01-11T01:56:09;38.20;31.52;56.61;;
37162;Laerm;68342;52.598;13.450;2024-01-11T01:58:35;39.01;32.07;61.48;;
37162;Laerm;68342;52.598;13.450;2024-01-11T02:01:01;38.19;30.62;59.35;;
37162;Laerm;68342;52.598;13.450;2024-01-11T02:03:27;37.55;30.16;56.43;;
37162;Laerm;68342;52.598;13.450;2024-01-11T02:05:53;38.74;30.63;60.54;;
37162;Laerm;68342;52.598;13.450;2024-01-11T02:08:18;37.35;30.70;57.44;;
37162;Laerm;68342;52.598;13.450;2024-01-11T02:10:46;38.15;31.24;60.54;;
37162;Laerm;68342;52.598;13.450;2024-01-11T02:13:12;37.85;30.66;56.30;;
37162;Laerm;68342;52.598;13.450;2024-01-11T02:15:38;37.67;30.88;56.32;;
37162;Laerm;68342;52.598;13.450;2024-01-11T02:18:04;37.11;30.74;57.25;;
37162;Laerm;68342;52.598;13.450;2024-01-11T02:20:29;38.56;31.28;59.93;;
37162;Laerm;68342;52.598;13.450;2024-01-11T02:22:56;37.89;30.73;59.59;;
37162;Laerm;68342;52.598;13.450;2024-01-11T02:25:23;38.28;32.71;54.74;;
37162;Laerm;68342;52.598;13.450;2024-01-11T02:27:49;39.17;33.04;56.51;;
37162;Laerm;68342;52.598;13.450;2024-01-11T02:30:15;39.79;33.73;58.39;;
37162;Laerm;68342;52.598;13.450;2024-01-11T02:32:41;38.71;32.10;64.18;;
37162;Laerm;68342;52.598;13.450;2024-01-11T02:35:06;38.46;32.40;58.87;;
37162;Laerm;68342;52.598;13.450;2024-01-11T02:37:32;38.49;32.07;57.43;;
37162;Laerm;68342;52.598;13.450;2024-01-11T02:39:57;38.33;33.06;54.52;;
37162;Laerm;68342;52.598;13.450;2024-01-11T02:42:22;38.62;32.75;58.69;;
37162;Laerm;68342;52.598;13.450;2024-01-11T02:44:47;38.40;32.46;56.71;;
37162;Laerm;68342;52.598;13.450;2024-01-11T02:47:13;38.61;32.43;59.78;;
37162;Laerm;68342;52.598;13.450;2024-01-11T02:49:38;39.32;31.40;60.57;;
37162;Laerm;68342;52.598;13.450;2024-01-11T02:52:03;38.31;31.75;62.85;;
37162;Laerm;68342;52.598;13.450;2024-01-11T02:54:29;38.27;31.73;57.75;;
37162;Laerm;68342;52.598;13.450;2024-01-11T02:56:54;38.57;31.98;56.50;;
37162;Laerm;68342;52.598;13.450;2024-01-11T02:59:19;38.66;31.36;60.65;;
37162;Laerm;68342;52.598;13.450;2024-01-11T03:01:45;37.99;30.48;56.18;;
37162;Laerm;68342;52.598;13.450;2024-01-11T03:04:10;37.86;30.76;58.93;;
37162;Laerm;68342;52.598;13.450;2024-01-11T03:06:35;38.23;31.78;59.38;;
37162;Laerm;68342;52.598;13.450;2024-01-11T03:09:01;37.93;31.53;58.61;;
37162;Laerm;68342;52.598;13.450;2024-01-11T03:11:26;39.37;31.89;56.94;;
37162;Laerm;68342;52.598;13.450;2024-01-11T03:13:51;39.97;33.30;56.11;;
37162;Laerm;68342;52.598;13.450;2024-01-11T03:16:17;40.18;33.30;57.50;;
37162;Laerm;68342;52.598;13.450;2024-01-11T03:18:42;39.32;33.05;55.91;;
37162;Laerm;68342;52.598;13.450;2024-01-11T03:21:07;39.43;33.38;59.63;;
37162;Laerm;68342;52.598;13.450;2024-01-11T03:23:33;39.93;34.18;63.46;;
37162;Laerm;68342;52.598;13.450;2024-01-11T03:25:58;40.08;32.60;56.30;;
37162;Laerm;68342;52.598;13.450;2024-01-11T03:28:23;39.36;33.64;58.29;;
37162;Laerm;68342;52.598;13.450;2024-01-11T03:30:48;39.05;33.59;55.38;;
37162;Laerm;68342;52.598;13.450;2024-01-11T03:33:14;40.40;33.68;60.39;;
37162;Laerm;68342;52.598;13.450;2024-01-11T03:35:39;39.60;33.73;60.10;;
37162;Laerm;68342;52.598;13.450;2024-01-11T03:38:05;39.24;33.11;55.01;;
37162;Laerm;68342;52.598;13.450;2024-01-11T03:40:30;40.56;35.10;58.13;;
37162;Laerm;68342;52.598;13.450;2024-01-11T03:42:56;40.26;33.04;59.24;;
37162;Laerm;68342;52.598;13.450;2024-01-11T03:45:21;40.38;34.86;57.28;;
37162;Laerm;68342;52.598;13.450;2024-01-11T03:47:46;40.73;35.58;55.67;;
37162;Laerm;68342;52.598;13.450;2024-01-11T03:50:12;40.38;35.30;58.90;;
37162;Laerm;68342;52.598;13.450;2024-01-11T03:52:37;41.10;36.50;58.45;;
37162;Laerm;68342;52.598;13.450;2024-01-11T03:55:02;40.49;35.60;59.25;;
37162;Laerm;68342;52.598;13.450;2024-01-11T03:57:28;42.22;37.91;56.28;;
37162;Laerm;68342;52.598;13.450;2024-01-11T03:59:53;41.98;37.25;56.10;;
37162;Laerm;68342;52.598;13.450;2024-01-11T04:02:19;41.13;35.33;63.26;;
37162;Laerm;68342;52.598;13.450;2024-01-11T04:04:44;46.30;35.64;57.17;;
37162;Laerm;68342;52.598;13.450;2024-01-11T04:07:09;43.24;37.79;57.73;;
37162;Laerm;68342;52.598;13.450;2024-01-11T04:09:36;42.11;36.85;55.53;;
37162;Laerm;68342;52.598;13.450;2024-01-11T04:12:02;43.03;37.87;57.19;;
37162;Laerm;68342;52.598;13.450;2024-01-11T04:14:28;43.20;39.47;56.87;;
37162;Laerm;68342;52.598;13.450;2024-01-11T04:16:53;43.55;39.07;55.86;;
37162;Laerm;68342;52.598;13.450;2024-01-11T04:19:19;41.65;37.65;58.41;;
37162;Laerm;68342;52.598;13.450;2024-01-11T04:21:45;41.13;37.53;55.46;;
37162;Laerm;68342;52.598;13.450;2024-01-11T04:24:10;41.69;38.15;55.91;;
37162;Laerm;68342;52.598;13.450;2024-01-11T04:26:35;42.87;38.47;57.34;;
37162;Laerm;68342;52.598;13.450;2024-01-11T04:29:00;43.13;38.75;59.25;;
37162;Laerm;68342;52.598;13.450;2024-01-11T04:31:26;43.28;39.40;57.97;;
37162;Laerm;68342;52.598;13.450;2024-01-11T04:33:51;42.98;39.20;55.00;;
37162;Laerm;68342;52.598;13.450;2024-01-11T04:36:16;43.15;39.23;56.43;;
37162;Laerm;68342;52.598;13.450;2024-01-11T04:38:42;43.08;39.47;60.37;;
37162;Laerm;68342;52.598;13.450;2024-01-11T04:41:13;42.86;38.83;63.06;;
37162;Laerm;68342;52.598;13.450;2024-01-11T04:43:39;43.09;39.06;61.11;;
37162;Laerm;68342;52.598;13.450;2024-01-11T04:46:17;44.19;40.38;53.87;;
37162;Laerm;68342;52.598;13.450;2024-01-11T04:48:44;44.77;40.84;58.46;;
37162;Laerm;68342;52.598;13.450;2024-01-11T04:51:09;44.84;40.31;59.94;;
37162;Laerm;68342;52.598;13.450;2024-01-11T04:53:41;44.60;40.74;57.20;;
37162;Laerm;68342;52.598;13.450;2024-01-11T04:56:07;44.01;39.32;58.39;;
37162;Laerm;68342;52.598;13.450;2024-01-11T04:58:33;44.04;39.71;56.47;;
37162;Laerm;68342;52.598;13.450;2024-01-11T05:00:59;43.89;38.27;53.69;;
37162;Laerm;68342;52.598;13.450;2024-01-11T05:03:24;45.43;40.33;57.58;;
37162;Laerm;68342;52.598;13.450;2024-01-11T05:05:50;44.93;40.86;57.03;;
37162;Laerm;68342;52.598;13.450;2024-01-11T05:08:15;44.22;40.07;57.33;;
37162;Laerm;68342;52.598;13.450;2024-01-11T05:10:41;43.27;39.79;55.67;;
37162;Laerm;68342;52.598;13.450;2024-01-11T05:13:06;44.03;39.81;63.87;;
37162;Laerm;68342;52.598;13.450;2024-01-11T05:15:31;45.16;41.40;54.36;;
37162;Laerm;68342;52.598;13.450;2024-01-11T05:17:57;43.69;40.75;54.97;;
37162;Laerm;68342;52.598;13.450;2024-01-11T05:20:22;43.79;40.40;56.03;;
37162;Laerm;68342;52.598;13.450;2024-01-11T05:22:48;44.54;40.73;55.80;;
37162;Laerm;68342;52.598;13.450;2024-01-11T05:25:13;44.26;40.95;55.33;;
37162;Laerm;68342;52.598;13.450;2024-01-11T05:27:39;44.13;40.42;62.94;;
37162;Laerm;68342;52.598;13.450;2024-01-11T05:30:04;43.95;39.76;59.05;;
37162;Laerm;68342;52.598;13.450;2024-01-11T05:32:30;45.29;40.48;60.71;;
37162;Laerm;68342;52.598;13.450;2024-01-11T05:34:55;45.82;41.41;55.86;;
37162;Laerm;68342;52.598;13.450;2024-01-11T05:37:20;44.92;41.50;57.22;;
37162;Laerm;68342;52.598;13.450;2024-01-11T05:39:46;44.66;40.59;61.29;;
37162;Laerm;68342;52.598;13.450;2024-01-11T05:42:11;44.20;40.11;58.43;;
37162;Laerm;68342;52.598;13.450;2024-01-11T05:44:36;44.62;40.92;57.24;;
37162;Laerm;68342;52.598;13.450;2024-01-11T05:47:01;44.11;40.78;55.78;;
37162;Laerm;68342;52.598;13.450;2024-01-11T05:49:27;44.45;40.58;57.92;;
37162;Laerm;68342;52.598;13.450;2024-01-11T05:51:52;43.89;40.65;57.58;;
37162;Laerm;68342;52.598;13.450;2024-01-11T05:54:17;44.51;40.78;56.86;;
37162;Laerm;68342;52.598;13.450;2024-01-11T05:56:42;43.80;40.17;59.84;;
37162;Laerm;68342;52.598;13.450;2024-01-11T05:59:08;42.91;38.96;58.07;;
37162;Laerm;68342;52.598;13.450;2024-01-11T06:01:33;43.07;39.16;57.64;;
37162;Laerm;68342;52.598;13.450;2024-01-11T06:03:58;43.64;40.44;56.82;;
37162;Laerm;68342;52.598;13.450;2024-01-11T06:06:23;43.91;39.64;62.81;;
37162;Laerm;68342;52.598;13.450;2024-01-11T06:08:49;44.17;40.40;58.34;;
37162;Laerm;68342;52.598;13.450;2024-01-11T06:11:14;44.62;41.22;55.86;;
37162;Laerm;68342;52.598;13.450;2024-01-11T06:16:07;44.76;40.34;57.55;;
37162;Laerm;68342;52.598;13.450;2024-01-11T06:18:32;44.26;40.44;56.13;;
37162;Laerm;68342;52.598;13.450;2024-01-11T06:20:58;44.27;40.35;53.95;;
37162;Laerm;68342;52.598;13.450;2024-01-11T06:23:24;43.55;40.47;56.56;;
37162;Laerm;68342;52.598;13.450;2024-01-11T06:25:49;44.45;40.83;57.47;;
37162;Laerm;68342;52.598;13.450;2024-01-11T06:28:14;44.19;40.62;55.07;;
37162;Laerm;68342;52.598;13.450;2024-01-11T06:30:40;44.17;41.22;55.55;;
37162;Laerm;68342;52.598;13.450;2024-01-11T06:33:05;44.24;40.27;59.15;;
37162;Laerm;68342;52.598;13.450;2024-01-11T06:35:30;45.01;40.67;57.34;;
37162;Laerm;68342;52.598;13.450;2024-01-11T06:37:56;45.00;41.23;55.78;;
37162;Laerm;68342;52.598;13.450;2024-01-11T06:40:21;44.82;41.06;57.33;;
37162;Laerm;68342;52.598;13.450;2024-01-11T06:42:46;45.23;41.21;58.73;;
37162;Laerm;68342;52.598;13.450;2024-01-11T06:45:11;46.56;42.50;58.99;;
37162;Laerm;68342;52.598;13.450;2024-01-11T06:47:37;45.04;41.14;59.24;;
37162;Laerm;68342;52.598;13.450;2024-01-11T06:50:02;46.10;42.15;58.49;;
37162;Laerm;68342;52.598;13.450;2024-01-11T06:52:28;45.63;41.28;58.67;;
37162;Laerm;68342;52.598;13.450;2024-01-11T06:54:53;46.62;40.46;58.03;;
37162;Laerm;68342;52.598;13.450;2024-01-11T06:57:18;44.36;41.21;57.77;;
37162;Laerm;68342;52.598;13.450;2024-01-11T06:59:44;45.48;40.71;58.89;;
37162;Laerm;68342;52.598;13.450;2024-01-11T07:02:11;45.24;41.32;58.69;;
37162;Laerm;68342;52.598;13.450;2024-01-11T07:04:36;45.45;41.77;59.08;;
37162;Laerm;68342;52.598;13.450;2024-01-11T07:07:01;47.54;42.58;64.73;;
37162;Laerm;68342;52.598;13.450;2024-01-11T07:09:29;49.35;41.41;71.45;;
37162;Laerm;68342;52.598;13.450;2024-01-11T07:11:55;45.94;41.08;61.65;;
37162;Laerm;68342;52.598;13.450;2024-01-11T07:14:20;46.41;41.75;61.33;;
37162;Laerm;68342;52.598;13.450;2024-01-11T07:16:45;45.50;41.36;61.77;;
37162;Laerm;68342;52.598;13.450;2024-01-11T07:19:10;46.03;42.89;57.29;;
37162;Laerm;68342;52.598;13.450;2024-01-11T07:21:36;46.25;42.16;59.97;;
37162;Laerm;68342;52.598;13.450;2024-01-11T07:24:01;46.14;42.40;57.99;;
37162;Laerm;68342;52.598;13.450;2024-01-11T07:26:27;46.01;41.50;61.06;;
37162;Laerm;68342;52.598;13.450;2024-01-11T07:28:52;58.47;40.68;76.03;;
37162;Laerm;68342;52.598;13.450;2024-01-11T07:31:19;46.03;42.15;58.62;;
37162;Laerm;68342;52.598;13.450;2024-01-11T07:33:45;45.21;41.52;56.75;;
37162;Laerm;68342;52.598;13.450;2024-01-11T07:36:10;44.72;41.41;55.33;;
37162;Laerm;68342;52.598;13.450;2024-01-11T07:38:38;49.94;41.52;63.97;;
37162;Laerm;68342;52.598;13.450;2024-01-11T07:41:03;45.91;40.97;59.26;;
37162;Laerm;68342;52.598;13.450;2024-01-11T07:43:29;48.25;41.20;64.87;;
37162;Laerm;68342;52.598;13.450;2024-01-11T07:45:54;46.33;41.14;62.85;;
37162;Laerm;68342;52.598;13.450;2024-01-11T07:48:21;45.21;40.36;57.23;;
37162;Laerm;68342;52.598;13.450;2024-01-11T07:50:46;45.60;40.80;58.80;;
37162;Laerm;68342;52.598;13.450;2024-01-11T07:53:12;46.21;41.86;65.99;;
37162;Laerm;68342;52.598;13.450;2024-01-11T07:55:37;47.34;41.47;61.17;;
37162;Laerm;68342;52.598;13.450;2024-01-11T07:58:03;45.16;40.77;59.04;;
37162;Laerm;68342;52.598;13.450;2024-01-11T08:00:28;45.94;41.46;59.15;;
37162;Laerm;68342;52.598;13.450;2024-01-11T08:02:54;47.47;41.47;65.30;;
37162;Laerm;68342;52.598;13.450;2024-01-11T08:05:19;45.95;40.51;61.75;;
37162;Laerm;68342;52.598;13.450;2024-01-11T08:07:44;45.42;39.94;62.31;;
37162;Laerm;68342;52.598;13.450;2024-01-11T08:10:10;51.90;40.71;70.62;;
37162;Laerm;68342;52.598;13.450;2024-01-11T08:12:35;46.60;40.89;69.43;;
37162;Laerm;68342;52.598;13.450;2024-01-11T08:15:01;46.07;41.76;66.55;;
37162;Laerm;68342;52.598;13.450;2024-01-11T08:17:26;46.18;41.16;61.18;;
37162;Laerm;68342;52.598;13.450;2024-01-11T08:19:51;46.35;39.83;64.40;;
37162;Laerm;68342;52.598;13.450;2024-01-11T08:22:16;44.28;40.08;55.55;;
37162;Laerm;68342;52.598;13.450;2024-01-11T08:24:42;44.05;39.71;60.58;;
37162;Laerm;68342;52.598;13.450;2024-01-11T08:27:07;44.94;40.12;58.33;;
37162;Laerm;68342;52.598;13.450;2024-01-11T08:29:32;45.14;41.32;64.61;;
37162;Laerm;68342;52.598;13.450;2024-01-11T08:31:58;45.00;41.43;60.12;;
37162;Laerm;68342;52.598;13.450;2024-01-11T08:34:23;43.87;40.51;55.38;;
37162;Laerm;68342;52.598;13.450;2024-01-11T08:36:51;44.32;40.22;58.32;;
37162;Laerm;68342;52.598;13.450;2024-01-11T08:39:16;44.16;40.53;59.29;;
37162;Laerm;68342;52.598;13.450;2024-01-11T08:41:42;44.44;41.44;58.47;;
37162;Laerm;68342;52.598;13.450;2024-01-11T08:44:07;44.78;40.55;58.00;;
37162;Laerm;68342;52.598;13.450;2024-01-11T08:46:33;44.66;40.21;57.23;;
37162;Laerm;68342;52.598;13.450;2024-01-11T08:48:58;43.99;40.12;57.10;;
37162;Laerm;68342;52.598;13.450;2024-01-11T08:51:24;43.83;39.71;57.92;;
37162;Laerm;68342;52.598;13.450;2024-01-11T08:53:49;46.08;41.43;56.53;;
37162;Laerm;68342;52.598;13.450;2024-01-11T08:56:14;44.12;40.02;57.43;;
37162;Laerm;68342;52.598;13.450;2024-01-11T08:58:41;44.72;41.08;54.35;;
37162;Laerm;68342;52.598;13.450;2024-01-11T09:01:07;45.53;41.93;55.77;;
37162;Laerm;68342;52.598;13.450;2024-01-11T09:03:33;44.84;40.88;55.63;;
37162;Laerm;68342;52.598;13.450;2024-01-11T09:05:59;45.61;41.31;58.27;;
37162;Laerm;68342;52.598;13.450;2024-01-11T09:08:24;45.57;41.55;58.78;;
37162;Laerm;68342;52.598;13.450;2024-01-11T09:10:49;47.51;41.43;56.78;;
37162;Laerm;68342;52.598;13.450;2024-01-11T09:13:14;45.78;42.06;59.24;;
37162;Laerm;68342;52.598;13.450;2024-01-11T09:15:42;44.56;40.56;60.71;;
37162;Laerm;68342;52.598;13.450;2024-01-11T09:18:07;44.10;40.46;58.16;;
37162;Laerm;68342;52.598;13.450;2024-01-11T09:20:33;44.40;40.70;57.44;;
37162;Laerm;68342;52.598;13.450;2024-01-11T09:22:59;44.14;40.07;56.46;;
37162;Laerm;68342;52.598;13.450;2024-01-11T09:25:24;44.72;39.94;59.58;;
37162;Laerm;68342;52.598;13.450;2024-01-11T09:27:49;44.50;40.03;56.56;;
37162;Laerm;68342;52.598;13.450;2024-01-11T09:30:14;51.13;41.93;66.65;;
37162;Laerm;68342;52.598;13.450;2024-01-11T09:32:40;45.63;40.21;63.91;;
37162;Laerm;68342;52.598;13.450;2024-01-11T09:35:05;47.38;39.26;64.74;;
37162;Laerm;68342;52.598;13.450;2024-01-11T09:37:30;45.21;39.86;61.70;;
37162;Laerm;68342;52.598;13.450;2024-01-11T09:39:56;43.65;38.38;58.94;;
37162;Laerm;68342;52.598;13.450;2024-01-11T09:42:22;43.79;38.62;60.73;;
37162;Laerm;68342;52.598;13.450;2024-01-11T09:44:47;43.85;39.71;58.50;;
37162;Laerm;68342;52.598;13.450;2024-01-11T09:47:12;44.44;41.16;58.91;;
37162;Laerm;68342;52.598;13.450;2024-01-11T09:49:39;43.71;39.76;53.58;;
37162;Laerm;68342;52.598;13.450;2024-01-11T09:52:06;44.83;40.05;55.48;;
37162;Laerm;68342;52.598;13.450;2024-01-11T09:54:34;44.96;40.40;57.07;;
37162;Laerm;68342;52.598;13.450;2024-01-11T09:57:00;46.20;41.90;59.34;;
37162;Laerm;68342;52.598;13.450;2024-01-11T09:59:28;45.09;40.78;60.89;;
37162;Laerm;68342;52.598;13.450;2024-01-11T10:01:53;43.80;40.09;58.49;;
37162;Laerm;68342;52.598;13.450;2024-01-11T10:04:19;45.79;40.10;56.84;;
37162;Laerm;68342;52.598;13.450;2024-01-11T10:06:44;45.83;40.97;57.71;;
37162;Laerm;68342;52.598;13.450;2024-01-11T10:09:09;45.23;40.75;59.41;;
37162;Laerm;68342;52.598;13.450;2024-01-11T10:11:35;46.60;42.67;59.59;;
37162;Laerm;68342;52.598;13.450;2024-01-11T10:14:01;45.71;40.57;57.13;;
37162;Laerm;68342;52.598;13.450;2024-01-11T10:16:29;45.45;41.84;55.33;;
37162;Laerm;68342;52.598;13.450;2024-01-11T10:18:55;45.62;41.51;60.88;;
37162;Laerm;68342;52.598;13.450;2024-01-11T10:21:20;45.65;40.87;59.33;;
37162;Laerm;68342;52.598;13.450;2024-01-11T10:23:45;46.51;42.37;56.66;;
37162;Laerm;68342;52.598;13.450;2024-01-11T10:26:11;45.90;40.40;60.68;;
37162;Laerm;68342;52.598;13.450;2024-01-11T10:28:36;46.48;42.14;56.39;;
37162;Laerm;68342;52.598;13.450;2024-01-11T10:31:03;45.98;42.02;60.63;;
37162;Laerm;68342;52.598;13.450;2024-01-11T10:33:28;46.93;42.14;63.18;;
37162;Laerm;68342;52.598;13.450;2024-01-11T10:35:53;45.42;40.80;65.09;;
37162;Laerm;68342;52.598;13.450;2024-01-11T10:38:19;45.21;41.41;56.77;;
37162;Laerm;68342;52.598;13.450;2024-01-11T10:40:47;45.77;41.08;58.65;;
37162;Laerm;68342;52.598;13.450;2024-01-11T10:43:14;46.22;41.53;58.38;;
37162;Laerm;68342;52.598;13.450;2024-01-11T10:45:43;45.65;39.96;60.70;;
37162;Laerm;68342;52.598;13.450;2024-01-11T10:48:15;43.88;40.08;57.74;;
37162;Laerm;68342;52.598;13.450;2024-01-11T10:50:44;43.55;39.88;58.25;;
37162;Laerm;68342;52.598;13.450;2024-01-11T10:53:31;43.89;40.18;53.77;;
37162;Laerm;68342;52.598;13.450;2024-01-11T10:55:55;45.56;39.86;59.31;;
37162;Laerm;68342;52.598;13.450;2024-01-11T10:58:22;45.39;41.22;59.32;;
37162;Laerm;68342;52.598;13.450;2024-01-11T11:00:49;44.53;40.92;57.80;;
37162;Laerm;68342;52.598;13.450;2024-01-11T11:03:15;44.36;40.05;59.43;;
37162;Laerm;68342;52.598;13.450;2024-01-11T11:05:42;44.05;40.33;60.34;;
37162;Laerm;68342;52.598;13.450;2024-01-11T11:08:08;43.70;39.91;54.10;;
37162;Laerm;68342;52.598;13.450;2024-01-11T11:10:34;47.53;41.45;63.43;;
37162;Laerm;68342;52.598;13.450;2024-01-11T11:13:00;44.88;40.95;59.63;;
37162;Laerm;68342;52.598;13.450;2024-01-11T11:15:28;45.56;41.05;57.29;;
37162;Laerm;68342;52.598;13.450;2024-01-11T11:17:54;45.48;40.95;60.70;;
37162;Laerm;68342;52.598;13.450;2024-01-11T11:20:19;47.18;40.46;63.20;;
37162;Laerm;68342;52.598;13.450;2024-01-11T11:22:48;46.02;39.62;63.35;;
37162;Laerm;68342;52.598;13.450;2024-01-11T11:25:26;44.73;40.34;59.34;;
37162;Laerm;68342;52.598;13.450;2024-01-11T11:27:51;45.18;40.81;58.81;;
37162;Laerm;68342;52.598;13.450;2024-01-11T11:30:18;48.58;40.17;68.17;;
37162;Laerm;68342;52.598;13.450;2024-01-11T11:32:44;44.91;40.08;60.39;;
37162;Laerm;68342;52.598;13.450;2024-01-11T11:35:10;46.99;41.05;65.19;;
37162;Laerm;68342;52.598;13.450;2024-01-11T11:37:38;45.23;40.42;57.18;;
37162;Laerm;68342;52.598;13.450;2024-01-11T11:40:13;45.29;40.28;61.65;;
37162;Laerm;68342;52.598;13.450;2024-01-11T11:42:39;44.24;40.37;60.92;;
37162;Laerm;68342;52.598;13.450;2024-01-11T11:45:05;46.02;40.78;58.42;;
37162;Laerm;68342;52.598;13.450;2024-01-11T11:47:34;47.80;39.75;64.56;;
37162;Laerm;68342;52.598;13.450;2024-01-11T11:50:04;44.67;40.06;57.10;;
37162;Laerm;68342;52.598;13.450;2024-01-11T11:52:32;44.27;40.43;59.69;;
37162;Laerm;68342;52.598;13.450;2024-01-11T11:54:57;44.81;39.99;60.49;;
37162;Laerm;68342;52.598;13.450;2024-01-11T11:57:23;45.62;40.62;63.51;;
37162;Laerm;68342;52.598;13.450;2024-01-11T11:59:49;48.66;41.47;63.48;;
37162;Laerm;68342;52.598;13.450;2024-01-11T12:02:16;45.29;40.94;60.18;;
37162;Laerm;68342;52.598;13.450;2024-01-11T12:04:46;48.41;41.48;67.70;;
37162;Laerm;68342;52.598;13.450;2024-01-11T12:07:14;49.09;41.16;63.95;;
37162;Laerm;68342;52.598;13.450;2024-01-11T12:09:40;50.47;40.05;70.37;;
37162;Laerm;68342;52.598;13.450;2024-01-11T12:12:05;51.16;40.85;68.64;;
37162;Laerm;68342;52.598;13.450;2024-01-11T12:14:30;47.57;41.43;60.98;;
37162;Laerm;68342;52.598;13.450;2024-01-11T12:16:56;47.02;41.06;61.23;;
37162;Laerm;68342;52.598;13.450;2024-01-11T12:19:23;44.76;40.24;59.59;;
37162;Laerm;68342;52.598;13.450;2024-01-11T12:21:48;43.64;39.30;60.16;;
37162;Laerm;68342;52.598;13.450;2024-01-11T12:24:14;44.99;40.22;56.65;;
37162;Laerm;68342;52.598;13.450;2024-01-11T12:26:40;43.76;40.25;55.28;;
37162;Laerm;68342;52.598;13.450;2024-01-11T12:29:06;43.25;39.54;58.36;;
37162;Laerm;68342;52.598;13.450;2024-01-11T12:31:31;44.10;39.68;60.56;;
37162;Laerm;68342;52.598;13.450;2024-01-11T12:33:57;44.41;40.82;60.54;;
37162;Laerm;68342;52.598;13.450;2024-01-11T12:36:22;43.39;38.51;56.84;;
37162;Laerm;68342;52.598;13.450;2024-01-11T12:38:48;42.61;38.94;57.40;;
37162;Laerm;68342;52.598;13.450;2024-01-11T12:41:13;43.63;39.54;58.55;;
37162;Laerm;68342;52.598;13.450;2024-01-11T12:43:39;44.79;39.00;62.82;;
37162;Laerm;68342;52.598;13.450;2024-01-11T12:46:04;43.85;38.54;60.17;;
37162;Laerm;68342;52.598;13.450;2024-01-11T12:48:30;42.13;37.89;56.51;;
37162;Laerm;68342;52.598;13.450;2024-01-11T12:50:55;41.97;38.58;58.42;;
37162;Laerm;68342;52.598;13.450;2024-01-11T12:53:21;43.89;39.58;58.62;;
37162;Laerm;68342;52.598;13.450;2024-01-11T12:55:47;42.71;39.18;60.18;;
37162;Laerm;68342;52.598;13.450;2024-01-11T12:58:13;42.45;39.02;54.16;;
37162;Laerm;68342;52.598;13.450;2024-01-11T13:00:39;42.76;38.89;59.80;;
37162;Laerm;68342;52.598;13.450;2024-01-11T13:03:05;43.20;39.02;58.37;;
37162;Laerm;68342;52.598;13.450;2024-01-11T13:05:30;44.27;39.80;55.36;;
37162;Laerm;68342;52.598;13.450;2024-01-11T13:08:00;44.19;39.73;55.87;;
37162;Laerm;68342;52.598;13.450;2024-01-11T13:10:27;43.37;39.46;62.48;;
37162;Laerm;68342;52.598;13.450;2024-01-11T13:12:53;43.77;40.42;56.71;;
37162;Laerm;68342;52.598;13.450;2024-01-11T13:15:19;43.99;39.84;58.05;;
37162;Laerm;68342;52.598;13.450;2024-01-11T13:17:44;44.11;40.21;56.73;;
37162;Laerm;68342;52.598;13.450;2024-01-11T13:20:09;43.91;40.30;57.51;;
37162;Laerm;68342;52.598;13.450;2024-01-11T13:22:35;44.72;41.27;57.67;;
37162;Laerm;68342;52.598;13.450;2024-01-11T13:25:00;45.78;41.14;55.96;;
37162;Laerm;68342;52.598;13.450;2024-01-11T13:27:25;45.23;41.03;59.19;;